sensor_id;sensor_type;location;lat;lon;timestamp;pressure;altitude;pressure_sealevel;temperature;humidity
63343;BME280;49465;57.664;39.686;2023-06-14T00:01:48;100991.41;;;14.17;43.39
63343;BME280;49465;57.664;39.686;2023-06-14T00:04:20;100994.66;;;14.21;43.22
63343;BME280;49465;57.664;39.686;2023-06-14T00:06:52;100990.22;;;14.09;43.66
63343;BME280;49465;57.664;39.686;2023-06-14T00:09:23;100986.13;;;14.04;43.57
63343;BME280;49465;57.664;39.686;2023-06-14T00:11:54;100980.50;;;13.83;44.03
63343;BME280;49465;57.664;39.686;2023-06-14T00:14:23;100980.84;;;13.92;44.00
63343;BME280;49465;57.664;39.686;2023-06-14T00:16:52;100987.25;;;13.88;44.18
63343;BME280;49465;57.664;39.686;2023-06-14T00:19:27;100990.09;;;13.84;43.66
63343;BME280;49465;57.664;39.686;2023-06-14T00:21:58;100979.84;;;13.67;43.47
63343;BME280;49465;57.664;39.686;2023-06-14T00:24:28;100981.19;;;13.60;43.85
63343;BME280;49465;57.664;39.686;2023-06-14T00:27:02;100993.75;;;13.69;44.59
63343;BME280;49465;57.664;39.686;2023-06-14T00:29:28;100989.72;;;13.51;44.42
63343;BME280;49465;57.664;39.686;2023-06-14T00:31:55;100996.13;;;13.47;44.21
63343;BME280;49465;57.664;39.686;2023-06-14T00:34:24;100992.84;;;13.43;44.69
63343;BME280;49465;57.664;39.686;2023-06-14T00:36:56;100999.25;;;13.39;44.77
63343;BME280;49465;57.664;39.686;2023-06-14T00:39:32;101002.81;;;13.65;43.33
63343;BME280;49465;57.664;39.686;2023-06-14T00:41:58;100995.41;;;13.30;44.98
63343;BME280;49465;57.664;39.686;2023-06-14T00:44:28;101004.44;;;13.26;44.28
63343;BME280;49465;57.664;39.686;2023-06-14T00:46:54;101003.88;;;13.21;44.92
63343;BME280;49465;57.664;39.686;2023-06-14T00:49:21;101005.88;;;13.17;45.02
63343;BME280;49465;57.664;39.686;2023-06-14T00:51:52;101013.16;;;13.26;45.12
63343;BME280;49465;57.664;39.686;2023-06-14T00:54:22;101008.88;;;13.11;44.98
63343;BME280;49465;57.664;39.686;2023-06-14T00:56:51;101009.94;;;13.09;45.22
63343;BME280;49465;57.664;39.686;2023-06-14T00:59:23;101010.19;;;13.18;45.30
63343;BME280;49465;57.664;39.686;2023-06-14T01:01:55;101012.50;;;13.23;44.76
63343;BME280;49465;57.664;39.686;2023-06-14T01:04:25;101009.75;;;13.12;46.27
63343;BME280;49465;57.664;39.686;2023-06-14T01:15:44;101010.13;;;13.05;45.25
63343;BME280;49465;57.664;39.686;2023-06-14T01:18:19;101008.81;;;12.98;46.00
63343;BME280;49465;57.664;39.686;2023-06-14T01:20:47;101002.56;;;12.86;46.15
63343;BME280;49465;57.664;39.686;2023-06-14T01:23:21;101014.09;;;12.98;46.08
63343;BME280;49465;57.664;39.686;2023-06-14T01:25:51;101004.69;;;12.80;46.50
63343;BME280;49465;57.664;39.686;2023-06-14T01:28:30;101017.28;;;13.03;46.28
63343;BME280;49465;57.664;39.686;2023-06-14T01:31:02;101015.88;;;12.83;47.26
63343;BME280;49465;57.664;39.686;2023-06-14T01:33:31;101006.94;;;13.69;41.15
63343;BME280;49465;57.664;39.686;2023-06-14T01:36:07;101001.59;;;13.02;45.94
63343;BME280;49465;57.664;39.686;2023-06-14T01:38:40;101009.56;;;13.00;46.19
63343;BME280;49465;57.664;39.686;2023-06-14T01:41:10;101003.78;;;12.81;46.70
63343;BME280;49465;57.664;39.686;2023-06-14T01:43:43;101007.78;;;13.01;47.09
63343;BME280;49465;57.664;39.686;2023-06-14T01:46:16;101016.72;;;12.98;47.44
63343;BME280;49465;57.664;39.686;2023-06-14T01:48:45;101013.13;;;12.99;48.00
63343;BME280;49465;57.664;39.686;2023-06-14T01:51:20;101012.03;;;13.03;47.71
63343;BME280;49465;57.664;39.686;2023-06-14T01:53:52;101013.03;;;13.15;47.41
63343;BME280;49465;57.664;39.686;2023-06-14T01:56:22;101003.56;;;12.98;48.00
63343;BME280;49465;57.664;39.686;2023-06-14T01:58:54;101008.59;;;13.16;48.06
63343;BME280;49465;57.664;39.686;2023-06-14T02:01:27;101007.91;;;13.26;47.69
63343;BME280;49465;57.664;39.686;2023-06-14T02:03:56;101011.50;;;13.25;47.38
63343;BME280;49465;57.664;39.686;2023-06-14T02:06:26;101009.34;;;13.18;47.74
63343;BME280;49465;57.664;39.686;2023-06-14T02:08:57;101004.81;;;13.34;47.55
63343;BME280;49465;57.664;39.686;2023-06-14T02:11:29;101009.69;;;13.40;48.28
63343;BME280;49465;57.664;39.686;2023-06-14T02:13:56;101004.81;;;13.34;48.91
63343;BME280;49465;57.664;39.686;2023-06-14T02:16:27;101014.25;;;13.51;49.07
63343;BME280;49465;57.664;39.686;2023-06-14T02:19:00;101004.16;;;13.58;49.06
63343;BME280;49465;57.664;39.686;2023-06-14T02:21:30;100995.72;;;13.53;48.83
63343;BME280;49465;57.664;39.686;2023-06-14T02:24:06;101000.72;;;13.70;49.02
63343;BME280;49465;57.664;39.686;2023-06-14T02:26:35;100999.34;;;13.77;49.43
63343;BME280;49465;57.664;39.686;2023-06-14T02:29:06;101005.09;;;13.84;48.83
63343;BME280;49465;57.664;39.686;2023-06-14T02:31:36;101005.19;;;13.82;49.06
63343;BME280;49465;57.664;39.686;2023-06-14T02:34:08;101004.75;;;13.89;49.27
63343;BME280;49465;57.664;39.686;2023-06-14T02:36:38;101003.28;;;13.97;49.14
63343;BME280;49465;57.664;39.686;2023-06-14T02:39:16;101010.09;;;14.27;48.89
63343;BME280;49465;57.664;39.686;2023-06-14T02:41:55;101002.69;;;14.45;48.11
63343;BME280;49465;57.664;39.686;2023-06-14T02:44:25;101009.25;;;14.39;49.18
63343;BME280;49465;57.664;39.686;2023-06-14T02:46:55;101005.88;;;14.37;48.41
63343;BME280;49465;57.664;39.686;2023-06-14T02:49:30;101001.72;;;14.46;49.05
63343;BME280;49465;57.664;39.686;2023-06-14T02:52:02;101007.25;;;14.69;48.89
63343;BME280;49465;57.664;39.686;2023-06-14T02:54:31;101003.97;;;14.78;49.75
63343;BME280;49465;57.664;39.686;2023-06-14T02:57:00;101007.44;;;14.78;48.98
63343;BME280;49465;57.664;39.686;2023-06-14T02:59:29;101011.94;;;15.02;49.24
63343;BME280;49465;57.664;39.686;2023-06-14T03:01:55;101010.13;;;15.02;48.85
63343;BME280;49465;57.664;39.686;2023-06-14T03:04:27;101005.09;;;15.23;49.53
63343;BME280;49465;57.664;39.686;2023-06-14T03:06:59;101003.13;;;15.38;49.32
63343;BME280;49465;57.664;39.686;2023-06-14T03:09:35;101008.53;;;15.61;49.26
63343;BME280;49465;57.664;39.686;2023-06-14T03:12:05;101009.50;;;15.71;48.82
63343;BME280;49465;57.664;39.686;2023-06-14T03:14:36;101004.16;;;15.73;48.99
63343;BME280;49465;57.664;39.686;2023-06-14T03:17:02;101004.94;;;15.86;48.57
63343;BME280;49465;57.664;39.686;2023-06-14T03:19:34;101001.13;;;16.01;48.48
63343;BME280;49465;57.664;39.686;2023-06-14T03:22:06;101004.41;;;16.28;48.30
63343;BME280;49465;57.664;39.686;2023-06-14T03:24:46;101011.06;;;16.45;48.83
63343;BME280;49465;57.664;39.686;2023-06-14T03:27:23;100992.28;;;16.70;48.47
63343;BME280;49465;57.664;39.686;2023-06-14T03:29:57;100996.72;;;16.81;48.04
63343;BME280;49465;57.664;39.686;2023-06-14T03:32:29;100999.88;;;16.97;47.52
63343;BME280;49465;57.664;39.686;2023-06-14T03:35:04;101001.97;;;17.15;48.46
63343;BME280;49465;57.664;39.686;2023-06-14T03:37:36;101004.81;;;17.34;48.79
63343;BME280;49465;57.664;39.686;2023-06-14T03:40:11;101001.91;;;17.49;48.30
63343;BME280;49465;57.664;39.686;2023-06-14T03:42:45;101001.34;;;17.66;47.56
63343;BME280;49465;57.664;39.686;2023-06-14T03:45:17;101004.19;;;17.86;48.29
63343;BME280;49465;57.664;39.686;2023-06-14T03:47:51;100999.25;;;18.02;47.75
63343;BME280;49465;57.664;39.686;2023-06-14T03:50:30;101004.34;;;18.36;46.30
63343;BME280;49465;57.664;39.686;2023-06-14T03:53:01;101000.19;;;18.43;47.78
63343;BME280;49465;57.664;39.686;2023-06-14T03:55:35;100992.69;;;18.58;47.15
63343;BME280;49465;57.664;39.686;2023-06-14T03:58:13;101001.34;;;18.81;46.68
63343;BME280;49465;57.664;39.686;2023-06-14T04:00:48;100986.16;;;19.03;47.09
63343;BME280;49465;57.664;39.686;2023-06-14T04:03:22;100993.75;;;19.27;46.55
63343;BME280;49465;57.664;39.686;2023-06-14T04:06:03;100994.75;;;19.45;45.73
63343;BME280;49465;57.664;39.686;2023-06-14T04:08:36;100993.63;;;19.58;45.33
63343;BME280;49465;57.664;39.686;2023-06-14T04:11:10;101007.34;;;19.92;45.20
63343;BME280;49465;57.664;39.686;2023-06-14T04:13:44;100999.59;;;20.18;44.48
63343;BME280;49465;57.664;39.686;2023-06-14T04:16:19;100993.38;;;20.37;44.19
63343;BME280;49465;57.664;39.686;2023-06-14T04:18:48;100994.72;;;20.61;44.29
63343;BME280;49465;57.664;39.686;2023-06-14T04:21:21;100979.25;;;20.74;43.38
63343;BME280;49465;57.664;39.686;2023-06-14T04:23:54;100994.75;;;21.06;43.75
63343;BME280;49465;57.664;39.686;2023-06-14T04:26:26;100994.16;;;21.30;42.55
63343;BME280;49465;57.664;39.686;2023-06-14T04:28:59;100995.34;;;21.46;41.82
63343;BME280;49465;57.664;39.686;2023-06-14T04:31:37;100988.28;;;21.81;41.12
63343;BME280;49465;57.664;39.686;2023-06-14T04:34:09;100989.31;;;22.06;41.07
63343;BME280;49465;57.664;39.686;2023-06-14T04:36:46;100983.91;;;22.24;39.34
63343;BME280;49465;57.664;39.686;2023-06-14T04:39:21;100988.16;;;22.61;39.33
63343;BME280;49465;57.664;39.686;2023-06-14T04:41:59;100987.25;;;22.95;39.04
63343;BME280;49465;57.664;39.686;2023-06-14T04:44:32;100979.28;;;23.03;39.14
63343;BME280;49465;57.664;39.686;2023-06-14T04:47:04;100979.34;;;23.27;38.63
63343;BME280;49465;57.664;39.686;2023-06-14T04:49:45;100975.34;;;23.48;38.12
63343;BME280;49465;57.664;39.686;2023-06-14T04:52:15;100987.22;;;23.62;37.47
63343;BME280;49465;57.664;39.686;2023-06-14T04:54:46;100983.72;;;23.94;37.92
63343;BME280;49465;57.664;39.686;2023-06-14T04:57:17;100970.66;;;24.07;36.11
63343;BME280;49465;57.664;39.686;2023-06-14T04:59:46;100974.78;;;24.35;35.08
63343;BME280;49465;57.664;39.686;2023-06-14T05:02:18;100979.19;;;24.67;35.52
63343;BME280;49465;57.664;39.686;2023-06-14T05:04:49;100970.09;;;24.76;35.36
63343;BME280;49465;57.664;39.686;2023-06-14T05:07:19;100976.34;;;25.00;34.84
63343;BME280;49465;57.664;39.686;2023-06-14T05:09:52;100985.94;;;25.87;35.20
63343;BME280;49465;57.664;39.686;2023-06-14T05:12:27;100986.75;;;25.49;35.25
63343;BME280;49465;57.664;39.686;2023-06-14T05:14:57;100987.56;;;25.73;35.54
63343;BME280;49465;57.664;39.686;2023-06-14T05:17:32;100981.28;;;26.03;35.31
63343;BME280;49465;57.664;39.686;2023-06-14T05:20:02;100980.34;;;26.26;34.88
63343;BME280;49465;57.664;39.686;2023-06-14T05:22:30;100980.53;;;26.39;34.70
63343;BME280;49465;57.664;39.686;2023-06-14T05:25:08;100983.13;;;26.77;34.82
63343;BME280;49465;57.664;39.686;2023-06-14T05:27:37;100978.53;;;26.93;34.03
63343;BME280;49465;57.664;39.686;2023-06-14T05:30:07;100982.22;;;27.07;34.17
63343;BME280;49465;57.664;39.686;2023-06-14T05:32:36;100979.09;;;27.25;33.82
63343;BME280;49465;57.664;39.686;2023-06-14T05:35:09;100984.63;;;27.59;34.02
63343;BME280;49465;57.664;39.686;2023-06-14T05:37:41;100975.03;;;27.78;32.86
63343;BME280;49465;57.664;39.686;2023-06-14T05:40:14;100980.84;;;28.04;32.61
63343;BME280;49465;57.664;39.686;2023-06-14T05:42:48;100980.38;;;28.28;31.41
63343;BME280;49465;57.664;39.686;2023-06-14T05:45:22;100984.69;;;28.51;31.17
63343;BME280;49465;57.664;39.686;2023-06-14T05:47:51;100975.38;;;28.60;30.62
63343;BME280;49465;57.664;39.686;2023-06-14T05:50:23;100976.94;;;28.89;31.08
63343;BME280;49465;57.664;39.686;2023-06-14T05:52:53;100971.59;;;29.09;30.32
63343;BME280;49465;57.664;39.686;2023-06-14T05:55:22;100973.50;;;29.15;29.37
63343;BME280;49465;57.664;39.686;2023-06-14T05:57:49;100973.09;;;29.32;28.87
63343;BME280;49465;57.664;39.686;2023-06-14T06:00:21;100979.16;;;29.61;29.89
63343;BME280;49465;57.664;39.686;2023-06-14T06:02:56;100975.44;;;29.75;29.63
63343;BME280;49465;57.664;39.686;2023-06-14T06:05:35;100979.56;;;29.91;27.72
63343;BME280;49465;57.664;39.686;2023-06-14T06:08:07;100979.13;;;30.01;27.92
63343;BME280;49465;57.664;39.686;2023-06-14T06:10:39;100976.41;;;30.14;26.46
63343;BME280;49465;57.664;39.686;2023-06-14T06:13:08;100977.00;;;30.29;26.72
63343;BME280;49465;57.664;39.686;2023-06-14T06:15:35;100975.75;;;30.39;27.40
63343;BME280;49465;57.664;39.686;2023-06-14T06:18:04;100981.06;;;30.65;26.15
63343;BME280;49465;57.664;39.686;2023-06-14T06:20:33;100983.75;;;30.72;25.72
63343;BME280;49465;57.664;39.686;2023-06-14T06:23:02;100977.00;;;30.88;24.82
63343;BME280;49465;57.664;39.686;2023-06-14T06:25:30;100978.81;;;31.07;25.42
63343;BME280;49465;57.664;39.686;2023-06-14T06:27:58;100978.44;;;31.29;24.99
63343;BME280;49465;57.664;39.686;2023-06-14T06:30:26;100976.91;;;31.46;24.89
63343;BME280;49465;57.664;39.686;2023-06-14T06:32:53;100970.84;;;31.69;25.23
63343;BME280;49465;57.664;39.686;2023-06-14T06:35:22;100971.63;;;31.95;25.51
63343;BME280;49465;57.664;39.686;2023-06-14T06:37:53;100974.31;;;32.20;24.00
63343;BME280;49465;57.664;39.686;2023-06-14T06:40:20;100965.97;;;32.40;23.95
63343;BME280;49465;57.664;39.686;2023-06-14T06:42:46;100975.41;;;32.56;24.15
63343;BME280;49465;57.664;39.686;2023-06-14T06:45:16;100969.19;;;32.67;23.76
63343;BME280;49465;57.664;39.686;2023-06-14T06:47:42;100964.19;;;32.83;22.16
63343;BME280;49465;57.664;39.686;2023-06-14T06:50:12;100961.88;;;32.98;23.85
63343;BME280;49465;57.664;39.686;2023-06-14T06:52:43;100956.91;;;33.25;23.22
63343;BME280;49465;57.664;39.686;2023-06-14T06:55:16;100963.69;;;33.46;22.79
63343;BME280;49465;57.664;39.686;2023-06-14T06:57:44;100951.63;;;33.42;22.35
63343;BME280;49465;57.664;39.686;2023-06-14T07:00:11;100956.81;;;33.56;22.43
63343;BME280;49465;57.664;39.686;2023-06-14T07:02:38;100956.53;;;33.64;21.42
63343;BME280;49465;57.664;39.686;2023-06-14T07:05:05;100960.88;;;33.77;22.17
63343;BME280;49465;57.664;39.686;2023-06-14T07:07:32;100957.56;;;33.86;22.19
63343;BME280;49465;57.664;39.686;2023-06-14T07:09:58;100958.38;;;33.99;22.57
63343;BME280;49465;57.664;39.686;2023-06-14T07:12:26;100952.09;;;34.10;21.93
63343;BME280;49465;57.664;39.686;2023-06-14T07:14:52;100957.53;;;34.22;22.35
63343;BME280;49465;57.664;39.686;2023-06-14T07:17:19;100954.78;;;34.34;22.25
63343;BME280;49465;57.664;39.686;2023-06-14T07:19:45;100949.44;;;34.51;21.98
63343;BME280;49465;57.664;39.686;2023-06-14T07:22:11;100953.06;;;34.68;22.09
63343;BME280;49465;57.664;39.686;2023-06-14T07:24:38;100957.72;;;34.84;21.06
63343;BME280;49465;57.664;39.686;2023-06-14T07:27:06;100953.13;;;35.02;21.83
63343;BME280;49465;57.664;39.686;2023-06-14T07:29:34;100953.19;;;35.19;21.95
63343;BME280;49465;57.664;39.686;2023-06-14T07:32:00;100947.97;;;35.34;21.69
63343;BME280;49465;57.664;39.686;2023-06-14T07:34:27;100949.88;;;35.51;21.10
63343;BME280;49465;57.664;39.686;2023-06-14T07:36:53;100947.38;;;35.66;21.55
63343;BME280;49465;57.664;39.686;2023-06-14T07:39:20;100955.56;;;35.83;22.01
63343;BME280;49465;57.664;39.686;2023-06-14T07:41:46;100953.56;;;35.95;21.60
63343;BME280;49465;57.664;39.686;2023-06-14T07:44:13;100957.88;;;36.13;20.86
63343;BME280;49465;57.664;39.686;2023-06-14T07:46:39;100948.50;;;36.26;20.00
63343;BME280;49465;57.664;39.686;2023-06-14T07:49:06;100950.84;;;36.39;20.24
63343;BME280;49465;57.664;39.686;2023-06-14T07:51:33;100950.72;;;36.51;20.80
63343;BME280;49465;57.664;39.686;2023-06-14T07:54:02;100957.81;;;36.74;20.42
63343;BME280;49465;57.664;39.686;2023-06-14T07:56:34;100954.69;;;36.88;21.03
63343;BME280;49465;57.664;39.686;2023-06-14T07:59:07;100950.66;;;36.95;20.63
63343;BME280;49465;57.664;39.686;2023-06-14T08:01:36;100950.06;;;37.53;22.34
63343;BME280;49465;57.664;39.686;2023-06-14T08:04:13;100952.53;;;37.17;20.93
63343;BME280;49465;57.664;39.686;2023-06-14T08:06:48;100955.06;;;37.29;21.50
63343;BME280;49465;57.664;39.686;2023-06-14T08:09:22;100947.06;;;37.17;20.77
63343;BME280;49465;57.664;39.686;2023-06-14T08:11:50;100939.03;;;37.10;20.16
63343;BME280;49465;57.664;39.686;2023-06-14T08:14:19;100937.13;;;37.11;19.85
63343;BME280;49465;57.664;39.686;2023-06-14T08:16:48;100941.72;;;37.05;19.36
63343;BME280;49465;57.664;39.686;2023-06-14T08:19:24;100941.09;;;37.25;20.67
63343;BME280;49465;57.664;39.686;2023-06-14T08:21:55;100939.97;;;37.21;20.39
63343;BME280;49465;57.664;39.686;2023-06-14T08:24:30;100934.06;;;37.34;20.73
63343;BME280;49465;57.664;39.686;2023-06-14T08:27:01;100935.19;;;37.38;20.29
63343;BME280;49465;57.664;39.686;2023-06-14T08:29:33;100930.84;;;37.43;20.12
63343;BME280;49465;57.664;39.686;2023-06-14T08:31:59;100922.16;;;37.51;20.14
63343;BME280;49465;57.664;39.686;2023-06-14T08:34:26;100928.69;;;37.50;19.61
63343;BME280;49465;57.664;39.686;2023-06-14T08:36:52;100924.63;;;37.57;20.00
63343;BME280;49465;57.664;39.686;2023-06-14T08:39:19;100924.47;;;37.69;19.47
63343;BME280;49465;57.664;39.686;2023-06-14T08:41:47;100921.50;;;37.81;20.13
63343;BME280;49465;57.664;39.686;2023-06-14T08:44:19;100920.22;;;37.94;19.74
63343;BME280;49465;57.664;39.686;2023-06-14T08:46:47;100921.91;;;38.05;18.64
63343;BME280;49465;57.664;39.686;2023-06-14T08:49:14;100926.34;;;38.11;18.17
63343;BME280;49465;57.664;39.686;2023-06-14T08:51:49;100919.56;;;38.29;19.16
63343;BME280;49465;57.664;39.686;2023-06-14T08:54:24;100922.06;;;38.41;19.86
63343;BME280;49465;57.664;39.686;2023-06-14T08:56:57;100923.47;;;38.49;18.83
63343;BME280;49465;57.664;39.686;2023-06-14T08:59:29;100912.31;;;38.66;18.06
63343;BME280;49465;57.664;39.686;2023-06-14T09:01:59;100910.38;;;38.56;18.99
63343;BME280;49465;57.664;39.686;2023-06-14T09:04:26;100909.53;;;38.61;19.36
63343;BME280;49465;57.664;39.686;2023-06-14T09:06:56;100908.72;;;38.70;19.06
63343;BME280;49465;57.664;39.686;2023-06-14T09:09:25;100912.31;;;38.86;18.56
63343;BME280;49465;57.664;39.686;2023-06-14T09:11:54;100896.97;;;38.90;18.14
63343;BME280;49465;57.664;39.686;2023-06-14T09:14:23;100895.09;;;39.01;18.34
63343;BME280;49465;57.664;39.686;2023-06-14T09:16:53;100895.06;;;39.22;19.20
63343;BME280;49465;57.664;39.686;2023-06-14T09:19:24;100891.22;;;39.23;18.33
63343;BME280;49465;57.664;39.686;2023-06-14T09:21:56;100890.94;;;39.24;18.25
63343;BME280;49465;57.664;39.686;2023-06-14T09:24:26;100896.13;;;39.41;17.53
63343;BME280;49465;57.664;39.686;2023-06-14T09:26:54;100891.44;;;39.42;17.27
63343;BME280;49465;57.664;39.686;2023-06-14T09:29:22;100888.47;;;39.48;17.58
63343;BME280;49465;57.664;39.686;2023-06-14T09:31:49;100889.50;;;39.58;18.29
63343;BME280;49465;57.664;39.686;2023-06-14T09:34:17;100888.13;;;39.70;17.70
63343;BME280;49465;57.664;39.686;2023-06-14T09:36:49;100876.59;;;39.73;18.12
63343;BME280;49465;57.664;39.686;2023-06-14T09:39:22;100874.34;;;39.86;18.35
63343;BME280;49465;57.664;39.686;2023-06-14T09:41:48;100879.84;;;39.81;17.99
63343;BME280;49465;57.664;39.686;2023-06-14T09:44:17;100870.00;;;39.74;17.46
63343;BME280;49465;57.664;39.686;2023-06-14T09:46:45;100866.69;;;39.72;17.49
63343;BME280;49465;57.664;39.686;2023-06-14T09:49:16;100868.91;;;39.70;17.35
63343;BME280;49465;57.664;39.686;2023-06-14T09:51:50;100868.59;;;39.87;17.89
63343;BME280;49465;57.664;39.686;2023-06-14T09:54:23;100865.56;;;39.89;17.64
63343;BME280;49465;57.664;39.686;2023-06-14T09:56:58;100873.22;;;39.87;17.57
63343;BME280;49465;57.664;39.686;2023-06-14T09:59:33;100866.94;;;39.91;17.70
63343;BME280;49465;57.664;39.686;2023-06-14T10:02:26;100869.59;;;40.07;18.63
63343;BME280;49465;57.664;39.686;2023-06-14T10:07:52;100869.16;;;40.39;18.14
63343;BME280;49465;57.664;39.686;2023-06-14T10:10:20;100869.03;;;40.10;17.33
63343;BME280;49465;57.664;39.686;2023-06-14T10:12:47;100859.94;;;40.14;16.94
63343;BME280;49465;57.664;39.686;2023-06-14T10:19:02;100869.34;;;40.53;18.16
63343;BME280;49465;57.664;39.686;2023-06-14T10:21:41;100863.66;;;40.44;17.92
63343;BME280;49465;57.664;39.686;2023-06-14T10:24:15;100858.75;;;40.31;18.18
63343;BME280;49465;57.664;39.686;2023-06-14T10:26:58;100859.75;;;40.50;18.37
63343;BME280;49465;57.664;39.686;2023-06-14T10:29:26;100852.16;;;40.32;17.79
63343;BME280;49465;57.664;39.686;2023-06-14T10:32:01;100857.63;;;40.42;17.48
63343;BME280;49465;57.664;39.686;2023-06-14T10:34:39;100852.94;;;40.43;16.88
63343;BME280;49465;57.664;39.686;2023-06-14T10:37:21;100846.78;;;40.56;16.27
63343;BME280;49465;57.664;39.686;2023-06-14T10:39:50;100844.88;;;40.51;17.77
63343;BME280;49465;57.664;39.686;2023-06-14T10:42:34;100847.81;;;40.65;17.89
63343;BME280;49465;57.664;39.686;2023-06-14T10:45:06;100850.13;;;40.48;17.47
63343;BME280;49465;57.664;39.686;2023-06-14T10:47:36;100844.63;;;40.48;16.91
63343;BME280;49465;57.664;39.686;2023-06-14T10:50:08;100837.25;;;40.43;17.19
63343;BME280;49465;57.664;39.686;2023-06-14T10:52:53;100837.25;;;40.43;17.79
63343;BME280;49465;57.664;39.686;2023-06-14T10:55:26;100828.47;;;40.46;17.91
63343;BME280;49465;57.664;39.686;2023-06-14T10:57:58;100831.69;;;40.53;17.85
63343;BME280;49465;57.664;39.686;2023-06-14T11:00:28;100829.47;;;40.56;18.17
63343;BME280;49465;57.664;39.686;2023-06-14T11:03:31;100831.50;;;40.79;18.12
63343;BME280;49465;57.664;39.686;2023-06-14T11:06:14;100823.72;;;40.91;18.26
63343;BME280;49465;57.664;39.686;2023-06-14T11:11:47;100808.19;;;41.01;17.01
63343;BME280;49465;57.664;39.686;2023-06-14T11:14:15;100809.22;;;40.81;17.88
63343;BME280;49465;57.664;39.686;2023-06-14T11:16:41;100810.28;;;40.85;17.45
63343;BME280;49465;57.664;39.686;2023-06-14T11:19:08;100807.53;;;40.85;16.67
63343;BME280;49465;57.664;39.686;2023-06-14T11:21:34;100808.38;;;40.85;17.16
63343;BME280;49465;57.664;39.686;2023-06-14T11:24:11;100813.25;;;40.94;16.81
63343;BME280;49465;57.664;39.686;2023-06-14T11:26:41;100804.50;;;40.86;17.42
63343;BME280;49465;57.664;39.686;2023-06-14T11:29:07;100808.13;;;40.82;17.46
63343;BME280;49465;57.664;39.686;2023-06-14T11:31:33;100801.75;;;40.86;16.92
63343;BME280;49465;57.664;39.686;2023-06-14T11:34:02;100800.13;;;40.85;16.37
63343;BME280;49465;57.664;39.686;2023-06-14T11:36:33;100798.66;;;40.93;17.11
63343;BME280;49465;57.664;39.686;2023-06-14T11:39:06;100805.94;;;41.08;17.50
63343;BME280;49465;57.664;39.686;2023-06-14T11:41:44;100801.59;;;41.02;16.62
63343;BME280;49465;57.664;39.686;2023-06-14T11:44:11;100792.34;;;40.92;17.05
63343;BME280;49465;57.664;39.686;2023-06-14T11:46:41;100787.97;;;40.91;16.57
63343;BME280;49465;57.664;39.686;2023-06-14T11:49:07;100790.72;;;40.91;16.77
63343;BME280;49465;57.664;39.686;2023-06-14T11:51:36;100793.22;;;40.88;17.38
63343;BME280;49465;57.664;39.686;2023-06-14T11:54:07;100786.31;;;40.90;17.11
63343;BME280;49465;57.664;39.686;2023-06-14T11:56:36;100791.81;;;40.90;16.94
63343;BME280;49465;57.664;39.686;2023-06-14T11:59:15;100788.22;;;40.95;16.58
63343;BME280;49465;57.664;39.686;2023-06-14T12:01:47;100792.22;;;41.03;17.40
63343;BME280;49465;57.664;39.686;2023-06-14T12:04:13;100785.63;;;41.76;17.98
63343;BME280;49465;57.664;39.686;2023-06-14T12:06:42;100791.63;;;41.11;17.83
63343;BME280;49465;57.664;39.686;2023-06-14T12:09:17;100788.16;;;41.00;17.20
63343;BME280;49465;57.664;39.686;2023-06-14T12:11:48;100786.28;;;40.96;17.04
63343;BME280;49465;57.664;39.686;2023-06-14T12:14:26;100787.66;;;40.93;16.70
63343;BME280;49465;57.664;39.686;2023-06-14T12:17:05;100792.94;;;41.19;17.80
63343;BME280;49465;57.664;39.686;2023-06-14T12:19:32;100792.03;;;40.99;16.06
63343;BME280;49465;57.664;39.686;2023-06-14T12:22:03;100790.22;;;41.14;16.87
63343;BME280;49465;57.664;39.686;2023-06-14T12:24:33;100782.59;;;41.05;17.19
63343;BME280;49465;57.664;39.686;2023-06-14T12:26:59;100777.41;;;41.04;16.44
63343;BME280;49465;57.664;39.686;2023-06-14T12:29:29;100771.31;;;41.07;16.94
63343;BME280;49465;57.664;39.686;2023-06-14T12:31:57;100774.88;;;41.07;16.34
63343;BME280;49465;57.664;39.686;2023-06-14T12:34:24;100773.84;;;41.03;16.36
63343;BME280;49465;57.664;39.686;2023-06-14T12:36:51;100774.34;;;41.05;17.76
63343;BME280;49465;57.664;39.686;2023-06-14T12:39:20;100774.66;;;41.04;18.18
63343;BME280;49465;57.664;39.686;2023-06-14T12:41:49;100772.06;;;41.13;16.94
63343;BME280;49465;57.664;39.686;2023-06-14T12:44:18;100769.09;;;41.09;17.27
63343;BME280;49465;57.664;39.686;2023-06-14T12:46:46;100767.94;;;41.15;16.89
63343;BME280;49465;57.664;39.686;2023-06-14T12:49:15;100769.00;;;41.19;17.80
63343;BME280;49465;57.664;39.686;2023-06-14T12:51:42;100755.72;;;41.26;17.50
63343;BME280;49465;57.664;39.686;2023-06-14T12:54:08;100766.38;;;41.33;17.08
63343;BME280;49465;57.664;39.686;2023-06-14T12:56:38;100756.13;;;41.39;16.49
63343;BME280;49465;57.664;39.686;2023-06-14T12:59:05;100755.00;;;41.40;16.28
63343;BME280;49465;57.664;39.686;2023-06-14T13:01:34;100747.06;;;41.38;15.98
63343;BME280;49465;57.664;39.686;2023-06-14T13:04:05;100757.91;;;41.48;16.80
63343;BME280;49465;57.664;39.686;2023-06-14T13:06:34;100747.34;;;41.37;16.02
63343;BME280;49465;57.664;39.686;2023-06-14T13:09:04;100747.34;;;41.37;16.14
63343;BME280;49465;57.664;39.686;2023-06-14T13:11:34;100749.50;;;41.40;17.05
63343;BME280;49465;57.664;39.686;2023-06-14T13:14:01;100753.59;;;41.42;16.66
63343;BME280;49465;57.664;39.686;2023-06-14T13:16:33;100740.38;;;41.44;16.83
63343;BME280;49465;57.664;39.686;2023-06-14T13:19:04;100741.69;;;41.47;16.94